createdAt,value
2022-09-28T00:00:32.990Z,90.95
2022-09-28T00:02:59.904Z,90.88
2022-09-28T00:05:26.948Z,90.56
2022-09-28T00:07:54.152Z,90.99
2022-09-28T00:10:23.456Z,90.64
2022-09-28T00:12:50.560Z,90.71
2022-09-28T00:15:17.788Z,90.40
2022-09-28T00:17:44.962Z,89.81
2022-09-28T00:20:12.359Z,89.60
2022-09-28T00:22:38.788Z,89.69
2022-09-28T00:25:06.641Z,89.86
2022-09-28T00:27:33.227Z,89.84
2022-09-28T00:30:00.018Z,90.19
2022-09-28T00:32:26.779Z,89.94
2022-09-28T00:34:53.156Z,89.70
2022-09-28T00:37:20.093Z,89.31
2022-09-28T00:39:48.246Z,89.11
2022-09-28T00:42:17.547Z,88.65
2022-09-28T00:44:46.763Z,88.25
2022-09-28T00:47:35.357Z,87.84
2022-09-28T00:50:24.383Z,88.29
2022-09-28T00:53:11.699Z,87.89
2022-09-28T00:55:44.289Z,88.53
2022-09-28T00:58:15.886Z,87.96
2022-09-28T01:00:42.548Z,88.51
2022-09-28T01:03:09.554Z,88.47
2022-09-28T01:05:38.326Z,88.40
2022-09-28T01:08:05.451Z,88.16
2022-09-28T01:10:32.148Z,88.03
2022-09-28T01:12:59.246Z,88.27
2022-09-28T01:15:28.195Z,87.86
2022-09-28T01:18:17.238Z,87.53
2022-09-28T01:20:49.700Z,87.46
2022-09-28T01:24:12.734Z,86.91
2022-09-28T01:26:54.010Z,87.22
2022-09-28T01:29:42.597Z,87.66
2022-09-28T01:32:19.905Z,87.61
2022-09-28T01:35:03.240Z,87.68
2022-09-28T01:37:49.406Z,87.32
2022-09-28T01:40:17.086Z,87.48
2022-09-28T01:42:46.789Z,87.97
2022-09-28T01:45:23.650Z,87.70
2022-09-28T01:47:52.017Z,87.41
2022-09-28T01:50:23.266Z,87.86
2022-09-28T01:53:12.846Z,87.47
2022-09-28T01:55:47.698Z,87.97
2022-09-28T01:58:31.930Z,87.92
2022-09-28T02:01:06.255Z,87.79
2022-09-28T02:03:56.093Z,87.18
2022-09-28T02:06:27.997Z,87.26
2022-09-28T02:09:03.426Z,87.78
2022-09-28T02:11:30.101Z,87.45
2022-09-28T02:14:03.801Z,87.58
2022-09-28T02:16:41.538Z,87.35
2022-09-28T02:19:12.767Z,87.39
2022-09-28T02:21:42.875Z,87.73
2022-09-28T02:24:21.399Z,87.33
2022-09-28T02:26:51.892Z,87.59
2022-09-28T02:29:18.585Z,86.86
2022-09-28T02:31:45.222Z,87.42
2022-09-28T02:34:11.845Z,87.58
2022-09-28T02:36:38.197Z,87.35
2022-09-28T02:39:04.599Z,87.11
2022-09-28T02:41:48.263Z,88.21
2022-09-28T02:44:32.850Z,87.26
2022-09-28T02:47:28.217Z,87.40
2022-09-28T02:50:16.123Z,87.67
2022-09-28T02:53:01.031Z,87.34
2022-09-28T02:55:51.789Z,87.52
2022-09-28T02:58:21.592Z,87.78
2022-09-28T03:01:09.273Z,87.28
2022-09-28T03:03:50.601Z,87.37
2022-09-28T03:06:30.731Z,87.33
2022-09-28T03:09:18.266Z,87.51
2022-09-28T03:11:53.710Z,87.81
2022-09-28T03:14:20.555Z,87.37
2022-09-28T03:16:46.989Z,87.65
2022-09-28T03:19:15.999Z,87.88
2022-09-28T03:21:42.310Z,87.57
2022-09-28T03:24:10.506Z,87.27
2022-09-28T03:26:40.142Z,87.26
2022-09-28T03:29:06.806Z,87.72
2022-09-28T03:31:33.396Z,87.52
2022-09-28T03:33:59.874Z,88.06
2022-09-28T03:36:26.235Z,87.39
2022-09-28T03:38:55.952Z,87.56
2022-09-28T03:41:24.160Z,87.48
2022-09-28T03:43:50.509Z,87.52
2022-09-28T03:46:17.005Z,87.70
2022-09-28T03:48:43.453Z,87.72
2022-09-28T03:51:10.702Z,88.57
2022-09-28T03:53:37.519Z,88.18
2022-09-28T03:56:21.997Z,88.25
2022-09-28T03:58:48.633Z,88.37
2022-09-28T04:01:18.685Z,88.22
2022-09-28T04:03:45.549Z,88.91
2022-09-28T04:06:12.507Z,88.65
2022-09-28T04:08:39.332Z,88.68
2022-09-28T04:11:05.856Z,88.83
2022-09-28T04:13:32.244Z,88.77
2022-09-28T04:16:01.028Z,89.15
2022-09-28T04:18:28.354Z,89.27
2022-09-28T04:21:07.017Z,89.56
2022-09-28T04:23:38.213Z,89.07
2022-09-28T04:26:07.003Z,89.29
2022-09-28T04:28:52.252Z,88.88
2022-09-28T04:31:22.167Z,88.92
2022-09-28T04:33:48.770Z,89.09
2022-09-28T04:36:15.178Z,89.01
2022-09-28T04:38:52.661Z,89.38
2022-09-28T04:41:20.091Z,88.94
2022-09-28T04:43:47.406Z,89.36
2022-09-28T04:46:14.511Z,89.04
2022-09-28T04:48:41.078Z,88.74
2022-09-28T04:51:07.483Z,88.96
2022-09-28T04:53:35.021Z,89.04
2022-09-28T04:56:02.742Z,88.67
2022-09-28T04:58:30.187Z,89.29
2022-09-28T05:01:02.616Z,88.97
2022-09-28T05:03:29.010Z,88.34
2022-09-28T05:05:55.386Z,88.49
2022-09-28T05:08:21.764Z,88.59
2022-09-28T05:10:48.090Z,88.49
2022-09-28T05:13:14.625Z,89.07
2022-09-28T05:15:41.834Z,89.02
2022-09-28T05:18:08.882Z,89.57
2022-09-28T05:20:41.014Z,89.74
2022-09-28T05:23:09.590Z,89.60
2022-09-28T05:25:35.902Z,89.26
2022-09-28T05:28:03.318Z,89.47
2022-09-28T05:30:29.755Z,89.20
2022-09-28T05:32:56.098Z,89.04
2022-09-28T05:35:22.459Z,89.24
2022-09-28T05:37:49.343Z,89.22
2022-09-28T05:40:16.191Z,89.29
2022-09-28T05:42:42.649Z,88.88
2022-09-28T05:45:10.124Z,88.40
2022-09-28T05:47:41.354Z,88.33
2022-09-28T05:50:11.682Z,88.45
2022-09-28T05:52:38.808Z,87.86
2022-09-28T05:55:06.514Z,88.32
2022-09-28T05:57:32.825Z,88.04
2022-09-28T05:59:59.210Z,88.43
2022-09-28T06:02:25.816Z,87.74
2022-09-28T06:04:53.824Z,87.32
2022-09-28T06:07:21.838Z,87.04
2022-09-28T06:09:48.166Z,86.92
2022-09-28T06:12:15.931Z,87.00
2022-09-28T06:14:42.343Z,86.55
2022-09-28T06:17:08.776Z,87.06
2022-09-28T06:19:35.167Z,87.63
2022-09-28T06:22:01.599Z,87.47
2022-09-28T06:24:27.963Z,88.09
2022-09-28T06:26:54.326Z,87.57
2022-09-28T06:29:20.733Z,88.21
2022-09-28T06:31:47.226Z,88.64
2022-09-28T06:34:15.040Z,88.55
2022-09-28T06:36:41.437Z,88.42
2022-09-28T06:39:07.886Z,88.60
2022-09-28T06:41:34.228Z,88.77
2022-09-28T06:44:01.967Z,88.27
2022-09-28T06:46:28.298Z,88.67
2022-09-28T06:48:55.026Z,87.99
2022-09-28T06:51:21.838Z,87.72
2022-09-28T06:53:48.210Z,87.01
2022-09-28T06:56:14.545Z,87.52
2022-09-28T06:58:40.875Z,87.13
2022-09-28T07:01:07.263Z,87.35
2022-09-28T07:03:33.617Z,87.30
2022-09-28T07:06:00.055Z,87.37
2022-09-28T07:08:26.481Z,86.77
2022-09-28T07:10:56.527Z,87.34
2022-09-28T07:16:14.931Z,87.55
2022-09-28T07:18:42.171Z,87.61
2022-09-28T07:21:12.665Z,87.28
2022-09-28T07:23:52.250Z,87.04
2022-09-28T07:26:23.451Z,86.94
2022-09-28T07:28:50.895Z,87.24
2022-09-28T07:31:17.330Z,87.20
2022-09-28T07:33:43.753Z,86.55
2022-09-28T07:36:10.655Z,86.48
2022-09-28T07:38:38.346Z,86.45
2022-09-28T07:41:14.731Z,86.15
2022-09-28T07:43:41.750Z,86.11
2022-09-28T07:46:12.387Z,85.89
2022-09-28T07:48:43.491Z,85.14
2022-09-28T07:51:10.251Z,84.70
2022-09-28T07:53:38.343Z,85.13
2022-09-28T07:56:07.255Z,84.66
2022-09-28T07:58:35.597Z,84.02
2022-09-28T08:01:08.232Z,83.29
2022-09-28T08:03:35.375Z,83.37
2022-09-28T08:06:05.866Z,84.14
2022-09-28T08:08:34.409Z,83.13
2022-09-28T08:11:00.767Z,83.55
2022-09-28T08:13:27.484Z,83.95
2022-09-28T08:15:54.906Z,83.22
2022-09-28T08:18:21.330Z,82.91
2022-09-28T08:21:06.533Z,83.01
2022-09-28T08:23:32.902Z,82.34
2022-09-28T08:25:59.270Z,82.55
2022-09-28T08:28:25.762Z,82.82
2022-09-28T08:30:52.537Z,82.88
2022-09-28T08:33:21.353Z,82.44
2022-09-28T08:35:48.171Z,80.65
2022-09-28T08:38:15.232Z,80.56
2022-09-28T08:40:58.135Z,79.77
2022-09-28T08:43:43.609Z,80.38
2022-09-28T08:46:11.988Z,80.65
2022-09-28T08:49:13.480Z,81.78
2022-09-28T08:52:13.192Z,83.40
2022-09-28T08:54:56.158Z,83.23
2022-09-28T08:57:38.030Z,83.81
2022-09-28T09:00:09.645Z,84.07
2022-09-28T09:02:39.677Z,83.98
2022-09-28T09:05:14.853Z,84.45
2022-09-28T09:08:05.880Z,84.72
2022-09-28T09:10:33.779Z,85.71
2022-09-28T09:13:11.687Z,85.84
2022-09-28T09:15:59.096Z,85.72
2022-09-28T09:18:39.904Z,84.95
2022-09-28T09:21:15.483Z,85.02
2022-09-28T09:23:56.013Z,84.45
2022-09-28T09:26:43.404Z,82.61
2022-09-28T09:29:14.913Z,83.09
2022-09-28T09:31:49.387Z,82.29
2022-09-28T09:34:41.779Z,82.62
2022-09-28T09:37:24.039Z,82.35
2022-09-28T09:39:53.149Z,82.87
2022-09-28T09:42:56.541Z,82.68
2022-09-28T09:45:44.566Z,82.89
2022-09-28T09:48:17.442Z,82.81
2022-09-28T09:50:57.750Z,82.69
2022-09-28T09:53:34.843Z,82.27
2022-09-28T09:56:19.317Z,82.20
2022-09-28T09:58:50.127Z,82.32
2022-09-28T10:01:21.919Z,81.82
2022-09-28T10:03:48.604Z,81.36
2022-09-28T10:06:19.589Z,82.18
2022-09-28T10:08:58.247Z,81.65
2022-09-28T10:11:34.015Z,82.23
2022-09-28T10:14:00.355Z,82.04
2022-09-28T10:16:27.135Z,79.87
2022-09-28T10:18:53.507Z,79.30
2022-09-28T10:21:23.104Z,79.76
2022-09-28T10:23:56.103Z,81.06
2022-09-28T10:26:28.144Z,79.88
2022-09-28T10:29:01.389Z,79.60
2022-09-28T10:31:39.802Z,77.92
2022-09-28T10:34:07.997Z,77.43
2022-09-28T10:36:45.955Z,77.50
2022-09-28T10:39:27.827Z,76.05
2022-09-28T10:41:54.519Z,77.68
2022-09-28T10:44:22.749Z,77.18
2022-09-28T10:46:59.022Z,78.39
2022-09-28T10:49:26.826Z,77.11
2022-09-28T10:51:54.742Z,74.89
2022-09-28T10:54:26.330Z,74.52
2022-09-28T10:56:54.414Z,73.35
2022-09-28T10:59:28.328Z,73.12
2022-09-28T11:01:59.387Z,71.99
2022-09-28T11:04:36.306Z,72.13
2022-09-28T11:07:02.708Z,72.24
2022-09-28T11:09:34.719Z,72.15
2022-09-28T11:12:04.915Z,73.15
2022-09-28T11:14:41.320Z,72.11
2022-09-28T11:17:30.598Z,70.83
2022-09-28T11:19:59.778Z,71.37
2022-09-28T11:22:41.599Z,71.68
2022-09-28T11:25:14.209Z,70.59
2022-09-28T11:27:40.796Z,71.32
2022-09-28T11:30:23.808Z,70.22
2022-09-28T11:32:51.757Z,70.91
2022-09-28T11:35:22.319Z,71.88
2022-09-28T11:38:05.039Z,71.89
2022-09-28T11:41:02.375Z,71.46
2022-09-28T11:43:41.610Z,72.38
2022-09-28T11:46:32.325Z,73.51
2022-09-28T11:49:07.258Z,72.13
2022-09-28T11:51:40.319Z,73.37
2022-09-28T11:54:28.813Z,72.70
2022-09-28T11:56:59.793Z,72.75
2022-09-28T11:59:33.230Z,72.43
2022-09-28T12:02:10.610Z,73.39
2022-09-28T12:04:58.684Z,72.58
2022-09-28T12:07:31.309Z,71.58
2022-09-28T12:10:11.549Z,71.72
2022-09-28T12:12:45.535Z,72.52
2022-09-28T12:16:06.842Z,68.92
2022-09-28T12:18:57.053Z,69.20
2022-09-28T12:21:47.094Z,68.27
2022-09-28T12:24:42.259Z,66.04
2022-09-28T12:27:16.204Z,68.39
2022-09-28T12:29:55.311Z,68.95
2022-09-28T12:32:40.606Z,67.05
2022-09-28T12:35:34.518Z,66.30
2022-09-28T12:38:17.982Z,67.96
2022-09-28T12:41:16.599Z,67.82
2022-09-28T12:44:04.564Z,67.90
2022-09-28T12:46:48.787Z,67.93
2022-09-28T12:50:36.210Z,66.33
2022-09-28T12:53:33.179Z,65.43
2022-09-28T12:56:33.878Z,65.61
2022-09-28T12:59:21.495Z,65.71
2022-09-28T13:02:14.741Z,65.39
2022-09-28T13:05:16.334Z,66.42
2022-09-28T13:07:54.558Z,65.77
2022-09-28T13:10:40.286Z,63.61
2022-09-28T13:13:25.961Z,64.18
2022-09-28T13:15:56.671Z,63.42
2022-09-28T13:18:34.751Z,62.05
2022-09-28T13:21:13.885Z,61.14
2022-09-28T13:23:46.703Z,62.55
2022-09-28T13:26:23.563Z,60.59
2022-09-28T13:28:54.586Z,59.86
2022-09-28T13:31:31.855Z,59.55
2022-09-28T13:34:01.898Z,57.60
2022-09-28T13:36:28.210Z,59.88
2022-09-28T13:38:56.850Z,59.84
2022-09-28T13:41:32.076Z,60.23
2022-09-28T13:44:13.439Z,60.55
2022-09-28T13:47:31.327Z,60.32
2022-09-28T13:50:27.341Z,61.70
2022-09-28T13:53:20.794Z,61.57
2022-09-28T13:55:47.124Z,63.17
2022-09-28T13:58:28.073Z,63.39
2022-09-28T14:01:11.298Z,60.45
2022-09-28T14:03:54.897Z,60.30
2022-09-28T14:06:21.213Z,61.51
2022-09-28T14:09:08.110Z,60.73
2022-09-28T14:11:34.746Z,60.78
2022-09-28T14:14:14.079Z,62.06
2022-09-28T14:16:42.144Z,61.63
2022-09-28T14:19:27.597Z,61.98
2022-09-28T14:22:15.572Z,63.17
2022-09-28T14:25:03.215Z,61.91
2022-09-28T14:27:57.461Z,62.05
2022-09-28T14:30:44.853Z,62.16
2022-09-28T14:33:20.386Z,63.23
2022-09-28T14:35:53.926Z,62.46
2022-09-28T14:38:47.677Z,62.47
2022-09-28T14:41:17.890Z,65.04
2022-09-28T14:43:44.204Z,61.42
2022-09-28T14:46:19.987Z,61.58
2022-09-28T14:48:53.883Z,60.58
2022-09-28T14:51:34.745Z,61.97
2022-09-28T14:54:10.571Z,61.61
2022-09-28T14:57:08.056Z,62.86
2022-09-28T14:59:42.711Z,63.97
2022-09-28T15:02:12.377Z,63.73
2022-09-28T15:05:07.227Z,65.11
2022-09-28T15:07:49.460Z,65.38
2022-09-28T15:10:27.327Z,65.34
2022-09-28T15:12:55.962Z,67.49
2022-09-28T15:15:30.834Z,66.47
2022-09-28T15:18:04.583Z,65.55
2022-09-28T15:20:35.985Z,65.46
2022-09-28T15:23:02.358Z,65.43
2022-09-28T15:25:31.635Z,65.09
2022-09-28T15:28:13.302Z,64.97
2022-09-28T15:30:39.942Z,64.32
2022-09-28T15:33:44.527Z,65.03
2022-09-28T15:36:19.355Z,64.04
2022-09-28T15:39:22.759Z,64.06
2022-09-28T15:41:50.868Z,64.64
2022-09-28T15:44:29.276Z,63.37
2022-09-28T15:47:16.713Z,62.50
2022-09-28T15:49:58.455Z,62.49
2022-09-28T15:52:52.615Z,64.21
2022-09-28T15:55:25.231Z,67.87
2022-09-28T15:58:05.921Z,64.88
2022-09-28T16:00:32.570Z,67.01
2022-09-28T16:03:29.053Z,65.40
2022-09-28T16:05:58.189Z,66.54
2022-09-28T16:08:31.493Z,66.52
2022-09-28T16:11:07.623Z,67.20
2022-09-28T16:13:34.920Z,64.87
2022-09-28T16:16:01.453Z,69.27
2022-09-28T16:18:30.620Z,70.61
2022-09-28T16:21:19.911Z,72.22
2022-09-28T16:23:52.265Z,71.38
2022-09-28T16:26:31.769Z,70.24
2022-09-28T16:28:58.579Z,67.91
2022-09-28T16:31:28.601Z,67.05
2022-09-28T16:33:58.882Z,69.53
2022-09-28T16:36:29.767Z,73.55
2022-09-28T16:38:56.292Z,74.59
2022-09-28T16:41:27.243Z,74.76
2022-09-28T16:43:59.266Z,76.90
2022-09-28T16:46:31.672Z,78.43
2022-09-28T16:48:59.711Z,79.99
2022-09-28T16:51:26.308Z,81.84
2022-09-28T16:54:11.486Z,83.22
2022-09-28T16:56:38.087Z,83.82
2022-09-28T16:59:04.699Z,84.64
2022-09-28T17:01:31.218Z,83.81
2022-09-28T17:03:57.689Z,83.63
2022-09-28T17:06:27.102Z,84.28
2022-09-28T17:08:56.518Z,83.71
2022-09-28T17:11:24.939Z,84.37
2022-09-28T17:13:53.531Z,84.11
2022-09-28T17:16:37.022Z,84.59
2022-09-28T17:19:23.824Z,84.94
2022-09-28T17:21:51.372Z,85.16
2022-09-28T17:24:19.204Z,85.05
2022-09-28T17:26:47.486Z,84.19
2022-09-28T17:29:15.039Z,84.91
2022-09-28T17:31:43.111Z,85.04
2022-09-28T17:34:11.073Z,84.95
2022-09-28T17:36:38.242Z,84.69
2022-09-28T17:39:05.356Z,85.60
2022-09-28T17:41:32.247Z,87.41
2022-09-28T17:43:58.802Z,88.23
2022-09-28T17:46:30.617Z,87.17
2022-09-28T17:49:01.635Z,86.91
2022-09-28T17:51:30.277Z,86.91
2022-09-28T17:53:57.654Z,86.57
2022-09-28T17:56:27.502Z,86.29
2022-09-28T17:58:59.597Z,86.35
2022-09-28T18:01:26.032Z,86.20
2022-09-28T18:03:52.384Z,86.30
2022-09-28T18:06:24.960Z,86.56
2022-09-28T18:08:51.304Z,86.80
2022-09-28T18:11:17.658Z,86.55
2022-09-28T18:13:45.911Z,86.52
2022-09-28T18:16:13.455Z,86.66
2022-09-28T18:18:39.974Z,86.66
2022-09-28T18:21:07.670Z,87.20
2022-09-28T18:23:38.217Z,87.34
2022-09-28T18:26:10.890Z,86.86
2022-09-28T18:28:37.223Z,86.98
2022-09-28T18:31:12.193Z,86.54
2022-09-28T18:33:51.329Z,86.73
2022-09-28T18:36:17.676Z,86.88
2022-09-28T18:38:44.048Z,86.68
2022-09-28T18:41:15.444Z,86.47
2022-09-28T18:43:49.225Z,86.93
2022-09-28T18:46:18.155Z,87.12
2022-09-28T18:48:44.835Z,87.41
2022-09-28T18:51:12.181Z,87.67
2022-09-28T18:53:39.712Z,86.95
2022-09-28T18:56:08.067Z,87.04
2022-09-28T18:58:35.983Z,87.08
2022-09-28T19:01:28.998Z,87.35
2022-09-28T19:03:56.331Z,87.09
2022-09-28T19:06:22.638Z,87.85
2022-09-28T19:08:53.346Z,87.52
2022-09-28T19:11:19.746Z,88.13
2022-09-28T19:13:46.062Z,87.92
2022-09-28T19:16:16.185Z,88.31
2022-09-28T19:18:43.738Z,88.33
2022-09-28T19:21:13.302Z,88.13
2022-09-28T19:23:43.024Z,88.09
2022-09-28T19:26:18.810Z,88.31
2022-09-28T19:28:45.146Z,88.04
2022-09-28T19:31:12.203Z,87.88
2022-09-28T19:33:39.402Z,88.61
2022-09-28T19:36:18.318Z,88.35
2022-09-28T19:38:45.761Z,88.97
2022-09-28T19:41:39.503Z,88.97
2022-09-28T19:44:15.995Z,89.13
2022-09-28T19:46:42.732Z,89.50
2022-09-28T19:49:12.644Z,89.23
2022-09-28T19:51:51.436Z,88.72
2022-09-28T19:54:32.085Z,88.85
2022-09-28T19:57:07.348Z,89.26
2022-09-28T19:59:34.753Z,89.42
2022-09-28T20:02:02.068Z,89.95
2022-09-28T20:04:28.964Z,89.92
2022-09-28T20:06:55.285Z,89.61
2022-09-28T20:09:21.679Z,89.85
2022-09-28T20:11:48.502Z,89.45
2022-09-28T20:14:18.582Z,89.58
2022-09-28T20:16:46.179Z,89.27
2022-09-28T20:19:12.782Z,88.91
2022-09-28T20:21:39.258Z,88.67
2022-09-28T20:24:05.777Z,89.05
2022-09-28T20:26:37.336Z,89.08
2022-09-28T20:29:06.608Z,89.30
2022-09-28T20:31:36.114Z,89.47
2022-09-28T20:34:04.042Z,89.39
2022-09-28T20:36:31.975Z,89.47
2022-09-28T20:39:01.743Z,89.01
2022-09-28T20:41:35.470Z,89.21
2022-09-28T20:44:05.587Z,89.72
2022-09-28T20:46:32.868Z,89.15
2022-09-28T20:48:59.601Z,89.56
2022-09-28T20:51:26.042Z,89.21
2022-09-28T20:53:54.985Z,89.15
2022-09-28T20:56:23.147Z,89.13
2022-09-28T20:58:51.027Z,89.08
2022-09-28T21:01:22.815Z,88.96
2022-09-28T21:03:57.831Z,89.35
2022-09-28T21:06:27.078Z,89.42
2022-09-28T21:08:54.156Z,89.23
2022-09-28T21:11:22.600Z,89.54
2022-09-28T21:13:58.025Z,89.23
2022-09-28T21:16:25.571Z,89.98
2022-09-28T21:18:52.031Z,89.78
2022-09-28T21:21:20.213Z,90.06
2022-09-28T21:23:46.882Z,89.94
2022-09-28T21:26:24.818Z,90.42
2022-09-28T21:28:55.947Z,90.55
2022-09-28T21:31:28.871Z,90.21
2022-09-28T21:33:56.404Z,90.51
2022-09-28T21:36:22.803Z,90.92
2022-09-28T21:38:49.338Z,91.06
2022-09-28T21:41:16.256Z,90.85
2022-09-28T21:43:42.604Z,90.58
2022-09-28T21:46:09.990Z,90.81
2022-09-28T21:48:36.384Z,91.06
2022-09-28T21:51:05.833Z,91.18
2022-09-28T21:53:34.838Z,90.98
2022-09-28T21:56:02.814Z,90.78
2022-09-28T21:58:31.766Z,90.94
2022-09-28T22:01:06.702Z,91.13
2022-09-28T22:03:35.253Z,91.31
2022-09-28T22:06:02.966Z,91.18
2022-09-28T22:08:29.449Z,91.48
2022-09-28T22:11:09.596Z,90.92
2022-09-28T22:13:41.500Z,91.12
2022-09-28T22:16:09.449Z,91.25
2022-09-28T22:18:36.568Z,90.87
2022-09-28T22:21:09.014Z,91.21
2022-09-28T22:23:36.498Z,91.18
2022-09-28T22:26:19.347Z,91.10
2022-09-28T22:28:47.951Z,90.91
2022-09-28T22:31:15.512Z,90.92
2022-09-28T22:33:41.970Z,90.94
2022-09-28T22:36:08.630Z,90.76
2022-09-28T22:38:35.231Z,91.12
2022-09-28T22:41:03.688Z,90.93
2022-09-28T22:43:30.894Z,91.48
2022-09-28T22:46:02.323Z,91.42
2022-09-28T22:48:29.240Z,90.98
2022-09-28T22:50:55.598Z,90.93
2022-09-28T22:53:22.047Z,90.89
2022-09-28T22:55:48.527Z,90.91
2022-09-28T22:58:14.942Z,91.14
2022-09-28T23:00:41.459Z,91.29
2022-09-28T23:03:07.891Z,91.02
2022-09-28T23:05:34.545Z,91.01
2022-09-28T23:08:01.318Z,91.03
2022-09-28T23:10:27.658Z,91.21
2022-09-28T23:12:54.831Z,91.07
2022-09-28T23:15:22.266Z,90.80
2022-09-28T23:17:55.186Z,91.44
2022-09-28T23:20:22.332Z,90.93
2022-09-28T23:22:49.077Z,91.10
2022-09-28T23:25:17.607Z,90.62
2022-09-28T23:27:48.624Z,91.01
2022-09-28T23:30:16.790Z,91.34
2022-09-28T23:32:43.456Z,90.99
2022-09-28T23:35:10.614Z,91.00
2022-09-28T23:37:37.594Z,90.87
2022-09-28T23:40:07.441Z,90.83
2022-09-28T23:42:34.901Z,91.07
2022-09-28T23:45:01.357Z,90.65
2022-09-28T23:47:27.677Z,90.80
2022-09-28T23:49:53.971Z,90.61
2022-09-28T23:52:20.341Z,90.83
2022-09-28T23:54:46.658Z,90.80
2022-09-28T23:57:12.978Z,90.95
2022-09-28T23:59:39.299Z,91.26
